Time;durP1;ratioP1;P1;durP2;ratioP2;P2;SDS_P1;SDS_P2;PMS_P1;PMS_P2;Temp;Humidity;BMP_temperature;BMP_pressure;BME280_temperature;BME280_humidity;BME280_pressure;Samples;Min_cycle;Max_cycle;Signal;HPM_P1;HPM_P2
2021/12/12 00:01:14;;;;;;;43.53;27.50;;;1.50;99.90;;;;;;637602;225;26389;-80
2021/12/12 00:03:46;;;;;;;42.93;27.17;;;1.40;99.90;;;;;;637427;225;26778;-80
2021/12/12 00:06:11;;;;;;;49.97;28.30;;;1.30;99.90;;;;;;637197;225;26795;-79
2021/12/12 00:08:38;;;;;;;47.13;25.33;;;1.20;99.90;;;;;;637551;225;26593;-79
2021/12/12 00:11:05;;;;;;;45.20;26.67;;;1.00;99.90;;;;;;637608;222;26808;-80
2021/12/12 00:13:33;;;;;;;44.27;26.10;;;1.10;99.90;;;;;;637208;223;26563;-80
2021/12/12 00:16:00;;;;;;;44.73;26.30;;;0.90;99.90;;;;;;637317;225;26582;-80
2021/12/12 00:18:27;;;;;;;42.93;25.30;;;0.70;99.90;;;;;;637360;226;26570;-80
2021/12/12 00:20:55;;;;;;;45.70;26.73;;;0.80;99.90;;;;;;637352;226;26562;-80
2021/12/12 00:23:22;;;;;;;49.10;28.03;;;0.90;99.90;;;;;;637397;226;26772;-80
2021/12/12 00:25:49;;;;;;;47.07;26.57;;;0.80;99.90;;;;;;637365;226;26579;-79
2021/12/12 00:28:19;;;;;;;47.30;27.20;;;0.80;99.90;;;;;;637234;226;26811;-81
2021/12/12 00:30:43;;;;;;;44.97;26.20;;;0.90;99.90;;;;;;637132;225;26593;-80
2021/12/12 00:33:11;;;;;;;46.17;26.83;;;0.90;99.90;;;;;;637456;226;27218;-80
2021/12/12 00:35:38;;;;;;;43.53;26.40;;;1.00;99.90;;;;;;637350;226;26584;-77
2021/12/12 00:38:05;;;;;;;43.17;24.83;;;1.10;99.90;;;;;;637327;226;26815;-77
2021/12/12 00:40:35;;;;;;;39.40;25.60;;;1.30;99.90;;;;;;636294;226;26593;-77
2021/12/12 00:43:03;;;;;;;38.93;23.63;;;1.50;99.90;;;;;;637191;226;26584;-77
2021/12/12 00:45:31;;;;;;;38.00;25.70;;;1.70;99.90;;;;;;637184;226;27238;-77
2021/12/12 00:47:58;;;;;;;40.77;25.33;;;1.80;99.90;;;;;;637379;222;26558;-77
2021/12/12 00:50:26;;;;;;;38.37;24.53;;;1.70;99.90;;;;;;637238;226;26820;-77
2021/12/12 00:52:53;;;;;;;40.13;24.23;;;1.40;99.90;;;;;;638783;223;26630;-77
2021/12/12 00:55:21;;;;;;;35.23;24.03;;;1.50;99.90;;;;;;638740;225;26512;-77
2021/12/12 00:57:53;;;;;;;35.53;23.30;;;1.60;99.90;;;;;;638341;225;26552;-77
2021/12/12 01:00:17;;;;;;;38.20;24.33;;;1.50;99.90;;;;;;638027;225;26590;-77
2021/12/12 01:02:45;;;;;;;36.80;24.57;;;1.60;99.90;;;;;;638061;225;26507;-77
2021/12/12 01:05:12;;;;;;;36.07;24.77;;;1.60;99.90;;;;;;638059;225;26519;-77
2021/12/12 01:07:39;;;;;;;39.40;24.87;;;1.40;99.90;;;;;;638009;225;26520;-77
2021/12/12 01:10:09;;;;;;;35.33;23.33;;;1.40;99.90;;;;;;637808;222;26827;-77
2021/12/12 01:12:36;;;;;;;37.93;23.90;;;1.30;99.90;;;;;;637610;225;26809;-77
2021/12/12 01:15:16;;;;;;;33.90;23.33;;;1.40;99.90;;;;;;637732;225;26562;-77
2021/12/12 01:17:43;;;;;;;34.87;22.73;;;1.30;99.90;;;;;;637411;225;26550;-77
2021/12/12 01:20:20;;;;;;;39.37;24.33;;;1.30;99.90;;;;;;637500;225;26570;-77
2021/12/12 01:22:47;;;;;;;34.33;23.73;;;1.30;99.90;;;;;;637399;222;26550;-77
2021/12/12 01:25:16;;;;;;;35.17;23.80;;;1.30;99.90;;;;;;637778;225;26787;-77
2021/12/12 01:27:43;;;;;;;36.93;24.67;;;1.00;99.90;;;;;;637409;225;26790;-77
2021/12/12 01:30:10;;;;;;;37.03;24.43;;;0.70;99.90;;;;;;637537;222;26602;-77
2021/12/12 01:32:37;;;;;;;36.43;23.93;;;0.60;99.90;;;;;;637525;223;26985;-77
2021/12/12 01:35:14;;;;;;;36.90;24.00;;;0.80;99.90;;;;;;637558;226;26554;-77
2021/12/12 01:37:38;;;;;;;37.73;24.30;;;0.90;99.90;;;;;;636707;226;26576;-77
2021/12/12 01:40:07;;;;;;;39.63;24.17;;;1.00;99.90;;;;;;637265;226;26597;-77
2021/12/12 01:42:37;;;;;;;35.50;22.93;;;1.20;99.90;;;;;;637268;226;26568;-78
2021/12/12 01:45:13;;;;;;;34.00;23.47;;;1.20;99.90;;;;;;637438;226;26803;-77
2021/12/12 01:47:42;;;;;;;41.17;24.63;;;1.20;99.90;;;;;;637155;226;27238;-77
2021/12/12 01:50:10;;;;;;;32.23;22.37;;;1.20;99.90;;;;;;637246;225;26588;-77
2021/12/12 01:52:37;;;;;;;35.43;23.60;;;1.10;99.90;;;;;;637083;226;26866;-78
2021/12/12 01:55:07;;;;;;;32.90;23.13;;;1.20;99.90;;;;;;637400;226;26774;-78
2021/12/12 01:57:34;;;;;;;35.77;24.23;;;1.10;99.90;;;;;;637288;226;26596;-77
2021/12/12 02:00:01;;;;;;;35.13;22.67;;;1.00;99.90;;;;;;637234;226;26873;-77
2021/12/12 02:02:29;;;;;;;34.00;23.53;;;1.10;99.90;;;;;;636775;226;26544;-77
2021/12/12 02:04:57;;;;;;;35.37;23.53;;;1.00;99.90;;;;;;638950;224;26900;-78
2021/12/12 02:07:24;;;;;;;36.50;22.60;;;1.00;99.90;;;;;;638412;225;26509;-77
2021/12/12 02:09:52;;;;;;;32.30;22.50;;;0.90;99.90;;;;;;638055;223;26605;-77
2021/12/12 02:12:20;;;;;;;32.77;23.03;;;0.90;99.90;;;;;;638085;225;26564;-77
2021/12/12 02:14:47;;;;;;;35.87;22.57;;;0.90;99.90;;;;;;637449;225;26527;-77
2021/12/12 02:17:21;;;;;;;34.87;23.37;;;0.90;99.90;;;;;;637998;225;26509;-77
2021/12/12 02:20:04;;;;;;;34.77;23.40;;;1.00;99.90;;;;;;637942;225;26508;-77
2021/12/12 02:22:36;;;;;;;34.57;22.07;;;1.00;99.90;;;;;;636632;225;26547;-77
2021/12/12 02:35:23;;;;;;;34.50;21.93;;;1.00;99.90;;;;;;637855;222;26503;-77
2021/12/12 02:37:43;;;;;;;34.20;23.33;;;0.90;99.90;;;;;;637022;225;26561;-77
2021/12/12 02:40:11;;;;;;;35.70;24.67;;;0.90;99.90;;;;;;637280;225;26840;-77
2021/12/12 02:42:38;;;;;;;36.17;22.93;;;1.10;99.90;;;;;;637222;226;26881;-77
2021/12/12 02:45:07;;;;;;;38.13;23.83;;;1.00;99.90;;;;;;637525;226;26575;-77
2021/12/12 02:47:34;;;;;;;35.23;22.53;;;1.10;99.90;;;;;;637415;226;26784;-77
2021/12/12 02:50:10;;;;;;;35.70;23.00;;;1.00;99.90;;;;;;637394;221;26613;-77
2021/12/12 02:52:34;;;;;;;33.17;22.20;;;1.00;99.90;;;;;;637145;226;26537;-77
2021/12/12 02:55:01;;;;;;;34.33;23.07;;;0.90;99.90;;;;;;637453;226;26803;-78
2021/12/12 02:57:28;;;;;;;35.20;23.27;;;1.10;99.90;;;;;;636821;226;26592;-77
2021/12/12 02:59:55;;;;;;;33.20;22.17;;;1.10;99.90;;;;;;637470;226;26839;-77
2021/12/12 03:02:25;;;;;;;34.10;22.90;;;1.00;99.90;;;;;;637567;226;26538;-77
2021/12/12 03:04:51;;;;;;;36.37;22.00;;;0.90;99.90;;;;;;637274;226;26557;-78
2021/12/12 03:07:18;;;;;;;35.33;22.23;;;0.90;99.90;;;;;;637505;223;26576;-77
2021/12/12 03:09:46;;;;;;;34.07;22.37;;;0.90;99.90;;;;;;637475;226;26589;-77
2021/12/12 03:12:15;;;;;;;38.23;22.87;;;0.90;99.90;;;;;;637265;225;26566;-77
2021/12/12 03:14:42;;;;;;;35.47;25.13;;;1.00;99.90;;;;;;637870;223;26560;-77
2021/12/12 03:17:10;;;;;;;33.43;22.20;;;0.90;99.90;;;;;;639004;225;26597;-77
2021/12/12 03:19:37;;;;;;;33.30;22.93;;;1.10;99.90;;;;;;638429;225;26540;-77
2021/12/12 03:22:05;;;;;;;31.50;22.23;;;1.10;99.90;;;;;;638333;225;26567;-77
2021/12/12 03:24:33;;;;;;;30.07;21.63;;;0.90;99.90;;;;;;638191;225;26578;-77
2021/12/12 03:27:00;;;;;;;35.13;22.03;;;0.90;99.90;;;;;;638129;225;26521;-78
2021/12/12 03:29:27;;;;;;;32.47;22.97;;;1.00;99.90;;;;;;638055;225;26532;-78
2021/12/12 03:31:57;;;;;;;34.20;22.50;;;1.00;99.90;;;;;;638135;225;26748;-77
2021/12/12 03:34:22;;;;;;;32.23;22.33;;;1.20;99.90;;;;;;637408;225;26851;-78
2021/12/12 03:36:49;;;;;;;36.00;22.80;;;1.10;99.90;;;;;;637741;225;26561;-77
2021/12/12 03:39:17;;;;;;;33.23;22.23;;;1.20;99.90;;;;;;637686;225;26913;-77
2021/12/12 03:41:44;;;;;;;31.83;22.97;;;1.20;99.90;;;;;;637611;225;26573;-77
2021/12/12 03:44:12;;;;;;;32.67;22.90;;;1.30;99.90;;;;;;637731;225;26579;-77
2021/12/12 03:46:40;;;;;;;33.37;21.13;;;1.40;99.90;;;;;;637658;225;26587;-77
2021/12/12 03:49:08;;;;;;;31.70;22.60;;;1.50;99.90;;;;;;637455;225;26594;-77
2021/12/12 03:51:36;;;;;;;28.23;21.97;;;1.60;99.90;;;;;;637479;225;26785;-77
2021/12/12 03:54:04;;;;;;;31.30;22.17;;;1.60;99.90;;;;;;637384;226;26600;-77
2021/12/12 03:56:31;;;;;;;33.73;22.30;;;1.50;99.90;;;;;;637431;226;26554;-77
2021/12/12 03:58:58;;;;;;;30.23;21.13;;;1.60;99.90;;;;;;637393;226;26592;-77
2021/12/12 04:01:29;;;;;;;31.33;21.83;;;1.40;99.90;;;;;;637396;226;26850;-77
2021/12/12 04:03:56;;;;;;;31.60;20.93;;;1.40;99.90;;;;;;637789;226;26764;-77
2021/12/12 04:06:24;;;;;;;28.37;21.33;;;1.60;99.90;;;;;;637721;226;26543;-77
2021/12/12 04:08:51;;;;;;;33.90;23.13;;;1.70;99.90;;;;;;637656;226;26853;-77
2021/12/12 04:11:19;;;;;;;33.57;22.10;;;1.60;99.90;;;;;;637856;226;26499;-77
2021/12/12 04:13:46;;;;;;;30.37;20.73;;;1.60;99.90;;;;;;637660;226;26528;-77
2021/12/12 04:16:13;;;;;;;28.63;21.73;;;1.60;99.90;;;;;;637537;226;26526;-78
2021/12/12 04:18:40;;;;;;;30.57;20.83;;;1.70;99.90;;;;;;637295;226;26795;-77
2021/12/12 04:21:08;;;;;;;31.50;21.80;;;1.40;99.90;;;;;;637349;226;26815;-77
2021/12/12 04:23:35;;;;;;;25.87;20.43;;;1.50;99.90;;;;;;637339;226;26726;-77
2021/12/12 04:26:11;;;;;;;30.13;20.70;;;1.40;99.90;;;;;;637717;222;26811;-77
2021/12/12 04:28:38;;;;;;;29.57;20.57;;;1.30;99.90;;;;;;638765;225;26594;-77
2021/12/12 04:31:06;;;;;;;27.73;20.07;;;1.20;99.90;;;;;;638471;225;26568;-77
2021/12/12 04:33:34;;;;;;;27.80;20.33;;;1.10;99.90;;;;;;638346;225;26563;-77
2021/12/12 04:36:02;;;;;;;24.70;19.37;;;1.20;99.90;;;;;;638217;225;26580;-77
2021/12/12 04:38:30;;;;;;;32.57;22.10;;;1.20;99.90;;;;;;637952;225;26516;-77
2021/12/12 04:40:57;;;;;;;28.00;21.53;;;1.40;99.90;;;;;;638072;225;26467;-77
2021/12/12 04:43:24;;;;;;;32.03;21.73;;;1.40;99.90;;;;;;638145;225;26755;-77
2021/12/12 04:46:07;;;;;;;31.23;20.80;;;1.40;99.90;;;;;;637891;225;26599;-77
2021/12/12 04:51:13;;;;;;;29.30;20.57;;;1.90;99.90;;;;;;637665;225;26854;-77
2021/12/12 04:53:40;;;;;;;33.23;21.90;;;1.40;99.90;;;;;;637539;225;26772;-77
2021/12/12 04:56:09;;;;;;;30.07;20.63;;;1.80;99.90;;;;;;637452;225;26571;-77
2021/12/12 04:58:39;;;;;;;32.53;22.23;;;2.10;99.90;;;;;;637382;225;26609;-77
2021/12/12 05:01:13;;;;;;;33.40;22.53;;;2.60;99.90;;;;;;637785;225;26569;-77
2021/12/12 05:03:51;;;;;;;32.50;22.20;;;2.50;99.90;;;;;;637253;225;26596;-77
2021/12/12 05:06:29;;;;;;;33.40;23.07;;;2.50;99.90;;;;;;637110;226;26597;-77
2021/12/12 05:08:56;;;;;;;32.90;23.03;;;2.60;99.90;;;;;;637402;225;26621;-78
2021/12/12 05:11:23;;;;;;;30.40;21.50;;;3.00;99.90;;;;;;637191;226;26771;-77
2021/12/12 05:13:51;;;;;;;31.63;21.30;;;3.20;99.90;;;;;;637180;226;26813;-77
2021/12/12 05:16:20;;;;;;;31.90;21.10;;;3.00;99.90;;;;;;637252;226;26793;-78
2021/12/12 05:18:50;;;;;;;33.17;21.87;;;2.90;99.90;;;;;;636986;226;26614;-78
2021/12/12 05:21:16;;;;;;;27.83;19.70;;;3.00;99.90;;;;;;637080;226;26777;-78
2021/12/12 05:23:44;;;;;;;27.30;20.57;;;3.00;99.90;;;;;;636820;225;26555;-78
2021/12/12 05:26:11;;;;;;;31.87;20.23;;;2.60;99.90;;;;;;637284;226;26581;-77
2021/12/12 05:28:40;;;;;;;32.37;20.47;;;2.70;99.90;;;;;;637266;221;26610;-77
2021/12/12 05:31:07;;;;;;;32.00;20.13;;;2.70;99.90;;;;;;637190;226;26577;-77
2021/12/12 05:33:34;;;;;;;30.80;20.57;;;2.50;99.90;;;;;;637416;226;26575;-78
2021/12/12 05:36:02;;;;;;;34.80;21.17;;;2.50;99.90;;;;;;637515;226;26567;-85
2021/12/12 05:38:29;;;;;;;30.57;21.47;;;2.30;99.90;;;;;;638550;223;26844;-85
2021/12/12 05:40:56;;;;;;;31.70;21.13;;;2.40;99.90;;;;;;638896;225;26505;-86
2021/12/12 05:43:23;;;;;;;33.23;21.33;;;2.30;99.90;;;;;;638639;225;26774;-86
2021/12/12 05:45:50;;;;;;;34.20;22.97;;;2.30;99.90;;;;;;638524;225;26774;-86
2021/12/12 05:48:25;;;;;;;42.47;23.77;;;2.30;99.90;;;;;;638156;225;26820;-86
2021/12/12 05:50:53;;;;;;;38.80;24.80;;;2.10;99.90;;;;;;638166;225;26508;-85
2021/12/12 05:53:20;;;;;;;42.13;25.20;;;1.90;99.90;;;;;;638196;225;26516;-86
2021/12/12 05:55:47;;;;;;;40.20;25.47;;;2.00;99.90;;;;;;638386;225;26492;-86
2021/12/12 05:58:14;;;;;;;39.77;23.43;;;2.00;99.90;;;;;;637739;221;26596;-86
2021/12/12 06:00:41;;;;;;;42.27;25.80;;;2.00;99.90;;;;;;637783;225;26605;-86
2021/12/12 06:03:09;;;;;;;41.77;24.77;;;2.00;99.90;;;;;;638028;225;26588;-85
2021/12/12 06:05:37;;;;;;;37.77;24.20;;;1.90;99.90;;;;;;637939;225;26557;-86
2021/12/12 06:08:05;;;;;;;33.87;22.37;;;2.00;99.90;;;;;;637899;225;26557;-85
2021/12/12 06:10:32;;;;;;;37.03;24.37;;;2.00;99.90;;;;;;637891;225;26574;-85
2021/12/12 06:12:59;;;;;;;36.50;23.00;;;2.10;99.90;;;;;;637932;225;26573;-85
2021/12/12 06:15:28;;;;;;;33.23;22.17;;;2.30;99.90;;;;;;637598;225;26557;-86
2021/12/12 06:17:54;;;;;;;34.17;21.97;;;2.60;99.90;;;;;;637404;226;26603;-86
2021/12/12 06:20:22;;;;;;;31.87;21.23;;;2.60;99.90;;;;;;637592;226;26592;-86
2021/12/12 06:22:49;;;;;;;29.57;20.87;;;2.80;99.90;;;;;;637639;222;26558;-86
2021/12/12 06:25:16;;;;;;;35.50;22.47;;;2.80;99.90;;;;;;637669;226;26575;-86
2021/12/12 06:27:43;;;;;;;29.47;21.37;;;2.80;99.90;;;;;;637587;226;26536;-86
2021/12/12 06:30:11;;;;;;;29.60;20.87;;;2.60;99.90;;;;;;637556;226;26842;-85
2021/12/12 06:32:38;;;;;;;33.27;21.00;;;2.80;99.90;;;;;;637336;226;26566;-86
2021/12/12 06:35:07;;;;;;;31.23;21.17;;;2.80;99.90;;;;;;637504;226;26580;-86
2021/12/12 06:37:35;;;;;;;30.17;21.07;;;2.80;99.90;;;;;;637548;226;26769;-86
2021/12/12 06:40:01;;;;;;;27.57;20.63;;;2.90;99.90;;;;;;637480;226;26572;-85
2021/12/12 06:42:29;;;;;;;28.87;21.30;;;2.90;99.90;;;;;;637499;226;26879;-85
2021/12/12 06:44:56;;;;;;;27.07;20.33;;;2.50;99.90;;;;;;637521;226;26575;-86
2021/12/12 06:47:23;;;;;;;27.07;19.63;;;2.30;99.90;;;;;;637503;226;26789;-86
2021/12/12 06:49:50;;;;;;;30.83;20.40;;;2.20;99.90;;;;;;638388;223;26531;-86
2021/12/12 06:52:17;;;;;;;27.47;19.13;;;2.20;99.90;;;;;;638967;225;26799;-86
2021/12/12 06:54:44;;;;;;;26.77;19.00;;;2.20;99.90;;;;;;638522;225;26523;-85
2021/12/12 06:57:12;;;;;;;27.60;20.10;;;2.10;99.90;;;;;;638414;225;26804;-85
2021/12/12 06:59:39;;;;;;;26.40;19.63;;;2.10;99.90;;;;;;638142;225;26541;-85
2021/12/12 07:02:06;;;;;;;24.97;19.57;;;2.10;99.90;;;;;;638190;225;26511;-86
2021/12/12 07:04:34;;;;;;;28.20;19.57;;;2.40;99.90;;;;;;638154;224;26513;-86
2021/12/12 07:07:02;;;;;;;27.00;20.27;;;2.60;99.90;;;;;;638198;225;26520;-85
2021/12/12 07:09:30;;;;;;;29.47;21.33;;;2.60;99.90;;;;;;637778;225;26619;-85
2021/12/12 07:11:57;;;;;;;28.77;20.27;;;2.50;99.90;;;;;;637648;225;26970;-86
2021/12/12 07:14:24;;;;;;;27.57;19.43;;;2.70;99.90;;;;;;637878;225;26529;-85
2021/12/12 07:16:51;;;;;;;30.43;19.93;;;2.70;99.90;;;;;;637906;225;26854;-85
2021/12/12 07:19:19;;;;;;;28.17;19.70;;;2.90;99.90;;;;;;637962;222;26827;-86
2021/12/12 07:21:46;;;;;;;30.70;20.00;;;3.00;99.90;;;;;;638044;222;27228;-87
2021/12/12 07:24:13;;;;;;;28.10;20.10;;;3.10;99.90;;;;;;637943;225;26533;-85
2021/12/12 07:26:40;;;;;;;30.13;21.70;;;3.10;99.90;;;;;;637634;225;26824;-86
2021/12/12 07:29:08;;;;;;;28.13;20.40;;;3.00;99.90;;;;;;637598;226;26561;-85
2021/12/12 07:31:35;;;;;;;28.57;20.20;;;2.90;99.90;;;;;;637617;226;26782;-85
2021/12/12 07:34:02;;;;;;;30.30;20.60;;;2.90;99.90;;;;;;637494;226;26567;-85
2021/12/12 07:36:32;;;;;;;30.87;20.07;;;2.90;99.90;;;;;;637419;226;26599;-86
2021/12/12 07:38:59;;;;;;;28.23;20.43;;;2.90;99.90;;;;;;636620;226;26620;-86
2021/12/12 07:41:26;;;;;;;28.67;21.43;;;3.10;99.90;;;;;;637431;226;26561;-85
2021/12/12 07:43:53;;;;;;;29.43;20.60;;;3.00;99.90;;;;;;637412;226;26807;-85
2021/12/12 07:46:21;;;;;;;29.13;20.63;;;3.10;99.90;;;;;;637487;226;26567;-85
2021/12/12 07:48:48;;;;;;;30.50;21.33;;;2.90;99.90;;;;;;637484;226;26768;-85
2021/12/12 07:51:15;;;;;;;27.77;19.77;;;2.90;99.90;;;;;;637459;226;26598;-85
2021/12/12 07:53:42;;;;;;;28.43;20.47;;;3.10;99.90;;;;;;637508;226;27101;-85
2021/12/12 07:56:09;;;;;;;30.03;19.57;;;3.10;99.90;;;;;;637484;226;26568;-85
2021/12/12 07:58:37;;;;;;;27.73;19.80;;;3.10;99.90;;;;;;637434;226;26809;-85
2021/12/12 08:01:04;;;;;;;26.30;19.33;;;3.30;99.90;;;;;;638067;223;26507;-84
2021/12/12 08:03:31;;;;;;;29.03;21.03;;;3.40;99.90;;;;;;639100;225;26789;-85
2021/12/12 08:06:00;;;;;;;29.83;20.30;;;3.40;99.90;;;;;;638424;225;26513;-84
2021/12/12 08:08:27;;;;;;;31.40;21.73;;;3.40;99.90;;;;;;638162;225;26799;-86
2021/12/12 08:10:54;;;;;;;28.30;20.13;;;3.40;99.90;;;;;;638620;221;27218;-84
2021/12/12 08:13:21;;;;;;;28.03;20.17;;;3.30;99.90;;;;;;638200;225;26522;-84
2021/12/12 08:15:48;;;;;;;27.30;21.17;;;3.30;99.90;;;;;;638293;225;26742;-84
2021/12/12 08:18:16;;;;;;;31.27;21.90;;;3.50;99.90;;;;;;638366;225;26508;-84
2021/12/12 08:20:43;;;;;;;32.97;21.10;;;3.30;99.90;;;;;;637985;225;26808;-85
2021/12/12 08:23:10;;;;;;;29.23;19.77;;;3.20;99.90;;;;;;637728;225;26576;-84
2021/12/12 08:25:37;;;;;;;33.57;21.97;;;3.10;99.90;;;;;;637808;225;26883;-85
2021/12/12 08:28:04;;;;;;;30.07;20.93;;;3.00;99.90;;;;;;637811;225;26562;-84
2021/12/12 08:30:31;;;;;;;32.30;21.57;;;3.20;99.90;;;;;;637855;225;26770;-82
2021/12/12 08:32:59;;;;;;;33.40;22.10;;;3.10;99.90;;;;;;637704;225;26562;-78
2021/12/12 08:35:26;;;;;;;27.77;19.57;;;2.90;99.90;;;;;;637741;225;26798;-83
2021/12/12 08:37:54;;;;;;;29.60;21.30;;;3.30;99.90;;;;;;637406;225;26803;-83
2021/12/12 08:40:22;;;;;;;32.00;22.33;;;3.30;99.90;;;;;;637458;226;26548;-84
2021/12/12 08:42:50;;;;;;;32.63;21.57;;;3.30;99.90;;;;;;637322;226;26532;-83
2021/12/12 08:45:17;;;;;;;30.27;21.70;;;3.20;99.90;;;;;;637541;226;26553;-84
2021/12/12 08:47:44;;;;;;;30.00;22.47;;;3.50;99.90;;;;;;637549;226;26579;-83
2021/12/12 08:50:11;;;;;;;30.20;21.63;;;3.50;99.90;;;;;;637396;226;27341;-84
2021/12/12 08:52:41;;;;;;;29.60;20.97;;;3.60;99.90;;;;;;637436;226;26567;-84
2021/12/12 08:55:07;;;;;;;31.33;21.80;;;3.40;99.90;;;;;;637219;222;26794;-84
2021/12/12 08:57:44;;;;;;;32.87;22.10;;;3.50;99.90;;;;;;637266;225;26589;-83
2021/12/12 09:00:02;;;;;;;30.67;21.10;;;3.90;99.90;;;;;;636490;226;26593;-84
2021/12/12 09:02:29;;;;;;;30.47;21.30;;;3.90;99.90;;;;;;637673;226;26547;-84
2021/12/12 09:04:56;;;;;;;34.33;22.33;;;4.00;99.90;;;;;;637853;226;26538;-85
2021/12/12 09:07:25;;;;;;;33.23;21.43;;;4.10;99.90;;;;;;637432;226;26858;-83
2021/12/12 09:09:53;;;;;;;31.63;22.20;;;4.20;99.90;;;;;;637202;226;26826;-84
2021/12/12 09:12:20;;;;;;;30.90;22.73;;;4.30;99.90;;;;;;637267;223;26586;-84
2021/12/12 09:14:48;;;;;;;28.90;20.43;;;4.10;99.90;;;;;;639018;225;26531;-83
2021/12/12 09:17:16;;;;;;;29.43;20.33;;;4.30;99.90;;;;;;643705;220;26845;-81
2021/12/12 09:19:45;;;;;;;27.40;20.07;;;4.50;99.90;;;;;;639456;221;26609;-82
2021/12/12 09:22:15;;;;;;;29.10;20.10;;;4.50;99.90;;;;;;648980;221;26606;-82
2021/12/12 09:24:49;;;;;;;29.63;21.30;;;4.70;99.90;;;;;;648836;221;26844;-81
2021/12/12 09:27:19;;;;;;;29.90;20.63;;;4.80;99.90;;;;;;644698;221;26551;-83
2021/12/12 09:29:57;;;;;;;30.03;20.53;;;4.60;99.90;;;;;;645139;222;26814;-83
2021/12/12 09:32:29;;;;;;;31.20;20.57;;;4.70;99.90;;;;;;647640;222;26554;-82
2021/12/12 09:35:00;;;;;;;26.73;19.23;;;4.70;99.90;;;;;;647457;222;26533;-83
2021/12/12 09:37:32;;;;;;;30.67;21.23;;;4.80;99.90;;;;;;647497;222;26587;-82
2021/12/12 09:40:01;;;;;;;27.40;19.77;;;4.40;99.90;;;;;;647532;222;26847;-81
2021/12/12 09:42:51;;;;;;;27.03;19.10;;;4.00;99.90;;;;;;647064;222;26577;-82
2021/12/12 09:45:22;;;;;;;28.27;20.57;;;4.00;99.90;;;;;;643958;222;26586;-82
2021/12/12 09:48:13;;;;;;;28.10;20.03;;;4.00;99.90;;;;;;648003;221;26520;-82
2021/12/12 09:53:24;;;;;;;30.27;20.93;;;4.40;99.90;;;;;;636586;226;26569;-81
2021/12/12 09:55:51;;;;;;;32.87;21.17;;;4.40;99.90;;;;;;636929;226;27237;-81
2021/12/12 09:58:20;;;;;;;29.73;21.07;;;4.40;99.90;;;;;;637210;226;26558;-81
2021/12/12 10:00:49;;;;;;;28.67;20.53;;;4.30;99.90;;;;;;644331;222;26540;-81
2021/12/12 10:03:22;;;;;;;27.67;19.53;;;4.60;99.90;;;;;;645201;221;26559;-80
2021/12/12 10:05:51;;;;;;;29.70;20.73;;;4.60;99.90;;;;;;636981;225;26779;-82
2021/12/12 10:08:25;;;;;;;29.43;19.53;;;4.60;99.90;;;;;;647541;222;26547;-83
2021/12/12 10:10:58;;;;;;;39.07;25.27;;;4.60;99.90;;;;;;647863;221;26570;-82
2021/12/12 10:13:41;;;;;;;33.10;22.67;;;4.60;99.90;;;;;;648080;222;26792;-82
2021/12/12 10:16:24;;;;;;;30.77;20.03;;;4.60;99.90;;;;;;646623;222;26561;-81
2021/12/12 10:18:52;;;;;;;29.90;21.10;;;4.60;99.90;;;;;;642239;221;26598;-80
2021/12/12 10:21:26;;;;;;;31.93;20.50;;;4.60;99.90;;;;;;641246;221;26565;-80
2021/12/12 10:24:12;;;;;;;28.80;21.07;;;4.90;99.90;;;;;;641161;220;26567;-81
2021/12/12 10:26:40;;;;;;;30.93;21.00;;;5.20;99.90;;;;;;639418;220;26582;-80
2021/12/12 10:29:09;;;;;;;29.53;20.47;;;5.10;99.90;;;;;;648151;222;26590;-80
2021/12/12 10:31:40;;;;;;;30.33;20.83;;;5.10;99.90;;;;;;648559;221;26575;-80
2021/12/12 10:34:14;;;;;;;29.07;20.60;;;5.50;99.90;;;;;;648873;221;26568;-80
2021/12/12 10:37:04;;;;;;;33.03;21.17;;;5.50;99.90;;;;;;648411;222;26803;-80
2021/12/12 10:39:32;;;;;;;26.97;20.00;;;6.00;99.90;;;;;;643492;222;26601;-80
2021/12/12 10:41:59;;;;;;;27.00;19.23;;;6.10;99.90;;;;;;642358;222;26576;-80
2021/12/12 10:44:30;;;;;;;26.33;19.90;;;5.60;99.90;;;;;;637653;225;26596;-81
2021/12/12 10:47:02;;;;;;;28.90;20.63;;;5.60;99.90;;;;;;637665;225;26578;-83
2021/12/12 10:49:32;;;;;;;32.40;21.30;;;5.70;99.90;;;;;;637203;225;27295;-83
2021/12/12 10:52:09;;;;;;;30.57;20.77;;;5.80;99.90;;;;;;637438;225;26509;-81
2021/12/12 10:54:53;;;;;;;26.37;19.80;;;5.60;99.90;;;;;;645893;222;26539;-81
2021/12/12 10:57:22;;;;;;;29.17;19.97;;;5.50;99.90;;;;;;650817;221;26795;-82
2021/12/12 10:59:52;;;;;;;28.27;20.17;;;5.60;99.90;;;;;;650716;221;26588;-85
2021/12/12 11:02:19;;;;;;;32.53;20.87;;;5.70;99.90;;;;;;637585;221;26578;-79
2021/12/12 11:04:46;;;;;;;28.63;19.30;;;5.70;99.90;;;;;;638171;222;27052;-79
2021/12/12 11:07:21;;;;;;;29.30;20.60;;;5.80;99.90;;;;;;648196;222;26803;-79
2021/12/12 11:10:05;;;;;;;25.30;18.90;;;6.00;99.90;;;;;;646321;221;26616;-79
2021/12/12 11:12:55;;;;;;;29.77;20.33;;;6.00;99.90;;;;;;646689;221;26795;-79
2021/12/12 11:15:25;;;;;;;28.43;20.07;;;5.90;99.90;;;;;;645872;221;26806;-80
2021/12/12 11:18:02;;;;;;;38.37;27.17;;;5.80;99.90;;;;;;642164;221;26562;-79
2021/12/12 11:20:34;;;;;;;31.93;21.53;;;5.80;99.90;;;;;;647065;221;26508;-75
2021/12/12 11:23:00;;;;;;;31.07;20.87;;;5.80;99.90;;;;;;645342;221;26789;-79
2021/12/12 11:25:28;;;;;;;28.17;19.00;;;5.90;99.90;;;;;;638205;221;26495;-79
2021/12/12 11:28:00;;;;;;;29.63;20.67;;;5.20;99.90;;;;;;637967;222;26538;-81
2021/12/12 11:30:36;;;;;;;27.03;19.83;;;5.10;99.90;;;;;;637672;226;26560;-77
2021/12/12 11:33:03;;;;;;;32.10;20.63;;;5.30;99.90;;;;;;641443;221;27175;-77
2021/12/12 11:35:31;;;;;;;30.07;21.07;;;5.60;99.90;;;;;;647346;220;26505;-77
2021/12/12 11:37:59;;;;;;;25.37;20.00;;;6.00;99.90;;;;;;648908;221;26568;-77
2021/12/12 11:40:29;;;;;;;26.80;20.30;;;6.00;99.90;;;;;;647951;222;26595;-77
2021/12/12 11:42:59;;;;;;;28.40;19.87;;;6.00;99.90;;;;;;648229;222;26511;-77
2021/12/12 11:45:32;;;;;;;27.47;19.83;;;5.40;99.90;;;;;;647675;222;26526;-77
2021/12/12 11:48:03;;;;;;;30.47;21.27;;;5.40;99.90;;;;;;640394;222;26484;-77
2021/12/12 11:50:46;;;;;;;28.07;20.03;;;5.70;99.90;;;;;;637595;225;26561;-77
2021/12/12 11:53:14;;;;;;;29.80;20.67;;;6.20;99.90;;;;;;627902;222;26556;-77
2021/12/12 11:55:42;;;;;;;29.00;18.87;;;5.60;99.90;;;;;;646326;222;27017;-77
2021/12/12 11:58:15;;;;;;;30.53;20.90;;;5.60;99.90;;;;;;637576;225;26591;-77
2021/12/12 12:00:46;;;;;;;30.53;20.53;;;5.80;99.90;;;;;;642025;222;26793;-78
2021/12/12 12:03:27;;;;;;;28.87;20.60;;;6.10;99.90;;;;;;647098;222;26778;-78
2021/12/12 12:06:02;;;;;;;27.97;20.07;;;6.20;99.90;;;;;;646271;222;26559;-79
2021/12/12 12:08:37;;;;;;;30.70;21.83;;;6.20;99.90;;;;;;637881;225;26572;-78
2021/12/12 12:11:16;;;;;;;31.80;21.20;;;6.20;99.90;;;;;;648841;221;26707;-78
2021/12/12 12:13:57;;;;;;;30.77;20.93;;;6.10;99.90;;;;;;651385;221;26549;-76
2021/12/12 12:16:33;;;;;;;31.13;21.70;;;5.90;99.90;;;;;;651032;221;26783;-76
2021/12/12 12:19:21;;;;;;;30.20;19.87;;;6.00;99.90;;;;;;650851;221;26560;-76
2021/12/12 12:22:10;;;;;;;26.80;19.10;;;6.40;99.90;;;;;;644333;221;26568;-76
2021/12/12 12:24:44;;;;;;;25.90;19.47;;;6.40;99.90;;;;;;625006;230;26636;-76
2021/12/12 12:27:11;;;;;;;31.63;19.40;;;6.80;99.90;;;;;;628740;225;26606;-76
2021/12/12 12:29:40;;;;;;;25.37;18.87;;;6.50;99.90;;;;;;637707;226;26827;-76
2021/12/12 12:32:28;;;;;;;26.70;19.63;;;6.50;99.90;;;;;;635926;226;26751;-77
2021/12/12 12:35:03;;;;;;;27.57;18.97;;;6.60;99.90;;;;;;627604;225;26590;-76
2021/12/12 12:37:38;;;;;;;23.80;17.87;;;6.60;99.90;;;;;;636004;226;26571;-76
2021/12/12 12:40:17;;;;;;;28.83;18.70;;;6.90;99.90;;;;;;635406;225;26621;-76
2021/12/12 12:42:52;;;;;;;24.60;17.70;;;7.00;99.90;;;;;;637348;226;26513;-76
2021/12/12 12:45:34;;;;;;;22.10;17.30;;;7.30;99.90;;;;;;636085;226;26573;-76
2021/12/12 12:48:27;;;;;;;24.93;17.47;;;7.20;99.90;;;;;;638313;223;26518;-76
2021/12/12 12:51:12;;;;;;;24.50;17.77;;;7.10;99.90;;;;;;638247;222;26753;-77
2021/12/12 12:54:03;;;;;;;22.70;16.37;;;7.00;99.90;;;;;;637802;222;26578;-76
2021/12/12 12:56:57;;;;;;;24.03;17.23;;;6.90;99.90;;;;;;639900;221;26567;-76
2021/12/12 12:59:37;;;;;;;25.17;16.53;;;6.50;99.90;;;;;;644294;221;26606;-76
2021/12/12 13:02:06;;;;;;;24.83;16.70;;;6.50;99.90;;;;;;648072;222;26607;-76
2021/12/12 13:04:48;;;;;;;21.73;16.07;;;6.80;99.90;;;;;;648687;221;26801;-75